sensor_id;sensor_type;location;lat;lon;timestamp;pressure;altitude;pressure_sealevel;temperature;humidity
60725;BME280;59881;36.722;-4.462;2023-10-09T00:00:06;101620.13;;;18.33;89.82
60725;BME280;59881;36.722;-4.462;2023-10-09T00:02:51;101564.28;;;17.99;89.78
60725;BME280;59881;36.722;-4.462;2023-10-09T00:05:17;101688.84;;;18.83;89.69
60725;BME280;59881;36.722;-4.462;2023-10-09T00:07:53;101591.50;;;18.14;89.38
60725;BME280;59881;36.722;-4.462;2023-10-09T00:10:21;101483.09;;;17.18;89.40
60725;BME280;59881;36.722;-4.462;2023-10-09T00:12:47;101685.00;;;18.76;89.44
60725;BME280;59881;36.722;-4.462;2023-10-09T00:15:14;101711.88;;;18.63;89.07
60725;BME280;59881;36.722;-4.462;2023-10-09T00:17:43;101375.63;;;16.87;88.99
60725;BME280;59881;36.722;-4.462;2023-10-09T00:20:13;101603.72;;;18.17;88.99
60725;BME280;59881;36.722;-4.462;2023-10-09T00:22:50;101416.94;;;17.02;88.81
60725;BME280;59881;36.722;-4.462;2023-10-09T00:25:17;101695.34;;;18.69;88.64
60725;BME280;59881;36.722;-4.462;2023-10-09T00:27:54;101680.97;;;18.60;88.37
60725;BME280;59881;36.722;-4.462;2023-10-09T00:30:20;101664.88;;;18.51;88.03
60725;BME280;59881;36.722;-4.462;2023-10-09T00:32:54;101685.47;;;18.60;87.96
60725;BME280;59881;36.722;-4.462;2023-10-09T00:35:20;101628.03;;;18.24;87.78
60725;BME280;59881;36.722;-4.462;2023-10-09T00:38:05;101391.97;;;16.82;87.34
60725;BME280;59881;36.722;-4.462;2023-10-09T00:40:47;101213.91;;;15.71;86.96
60725;BME280;59881;36.722;-4.462;2023-10-09T00:43:22;101630.47;;;18.27;86.85
60725;BME280;59881;36.722;-4.462;2023-10-09T00:45:54;101629.16;;;18.21;86.57
60725;BME280;59881;36.722;-4.462;2023-10-09T00:48:20;101670.94;;;18.53;86.48
60725;BME280;59881;36.722;-4.462;2023-10-09T00:50:55;101677.38;;;18.50;86.05
60725;BME280;59881;36.722;-4.462;2023-10-09T00:53:25;101711.22;;;18.50;85.78
60725;BME280;59881;36.722;-4.462;2023-10-09T00:56:02;101669.53;;;18.49;85.66
60725;BME280;59881;36.722;-4.462;2023-10-09T00:58:44;101665.75;;;18.51;85.70
60725;BME280;59881;36.722;-4.462;2023-10-09T01:01:12;101379.56;;;16.49;85.36
60725;BME280;59881;36.722;-4.462;2023-10-09T01:03:42;101675.44;;;18.52;85.38
60725;BME280;59881;36.722;-4.462;2023-10-09T01:06:08;101671.66;;;18.55;85.11
60725;BME280;59881;36.722;-4.462;2023-10-09T01:08:35;101406.34;;;16.91;84.83
60725;BME280;59881;36.722;-4.462;2023-10-09T01:13:37;101653.88;;;18.44;84.23
60725;BME280;59881;36.722;-4.462;2023-10-09T01:16:26;101666.47;;;18.53;84.05
60725;BME280;59881;36.722;-4.462;2023-10-09T01:18:56;101664.03;;;18.50;83.69
60725;BME280;59881;36.722;-4.462;2023-10-09T01:21:23;101709.78;;;18.46;83.24
60725;BME280;59881;36.722;-4.462;2023-10-09T01:23:54;101530.03;;;17.63;83.09
60725;BME280;59881;36.722;-4.462;2023-10-09T01:26:32;101656.81;;;18.41;83.02
60725;BME280;59881;36.722;-4.462;2023-10-09T01:29:12;101667.47;;;18.41;82.77
60725;BME280;59881;36.722;-4.462;2023-10-09T01:31:43;101635.66;;;18.28;82.41
60725;BME280;59881;36.722;-4.462;2023-10-09T01:34:31;101633.72;;;18.30;82.25
60725;BME280;59881;36.722;-4.462;2023-10-09T01:37:16;101624.16;;;18.28;81.94
60725;BME280;59881;36.722;-4.462;2023-10-09T01:39:49;101649.56;;;18.53;81.48
60725;BME280;59881;36.722;-4.462;2023-10-09T01:42:16;101594.94;;;18.26;81.87
60725;BME280;59881;36.722;-4.462;2023-10-09T01:44:54;101611.41;;;18.31;81.38
60725;BME280;59881;36.722;-4.462;2023-10-09T01:47:20;101655.78;;;18.53;81.04
60725;BME280;59881;36.722;-4.462;2023-10-09T01:49:47;101621.53;;;18.37;81.00
60725;BME280;59881;36.722;-4.462;2023-10-09T01:52:18;101646.75;;;18.45;80.71
60725;BME280;59881;36.722;-4.462;2023-10-09T01:54:44;101649.53;;;18.43;80.92
60725;BME280;59881;36.722;-4.462;2023-10-09T01:57:15;101645.31;;;18.40;80.79
60725;BME280;59881;36.722;-4.462;2023-10-09T01:59:43;101537.97;;;17.74;80.50
60725;BME280;59881;36.722;-4.462;2023-10-09T02:02:15;101538.56;;;17.77;80.59
60725;BME280;59881;36.722;-4.462;2023-10-09T02:05:02;101635.13;;;18.34;80.83
60725;BME280;59881;36.722;-4.462;2023-10-09T02:07:31;101552.66;;;17.68;80.67
60725;BME280;59881;36.722;-4.462;2023-10-09T02:10:06;101541.81;;;17.81;80.61
60725;BME280;59881;36.722;-4.462;2023-10-09T02:12:47;101632.59;;;18.33;80.56
60725;BME280;59881;36.722;-4.462;2023-10-09T02:15:16;101330.50;;;16.42;80.48
60725;BME280;59881;36.722;-4.462;2023-10-09T02:18:01;101630.47;;;18.27;80.80
60725;BME280;59881;36.722;-4.462;2023-10-09T02:20:41;101477.25;;;17.24;80.67
60725;BME280;59881;36.722;-4.462;2023-10-09T02:23:07;101390.28;;;16.81;80.80
60725;BME280;59881;36.722;-4.462;2023-10-09T02:25:38;101625.66;;;18.20;80.90
60725;BME280;59881;36.722;-4.462;2023-10-09T02:28:08;101571.38;;;17.89;80.78
60725;BME280;59881;36.722;-4.462;2023-10-09T02:30:34;101628.03;;;18.24;80.86
60725;BME280;59881;36.722;-4.462;2023-10-09T02:32:59;101626.09;;;18.26;80.78
60725;BME280;59881;36.722;-4.462;2023-10-09T02:35:34;101526.28;;;17.65;80.77
60725;BME280;59881;36.722;-4.462;2023-10-09T02:38:08;101617.53;;;18.22;80.99
60725;BME280;59881;36.722;-4.462;2023-10-09T02:40:36;101571.38;;;17.89;80.79
60725;BME280;59881;36.722;-4.462;2023-10-09T02:43:09;101413.84;;;16.86;80.78
60725;BME280;59881;36.722;-4.462;2023-10-09T02:45:43;101576.84;;;17.88;80.56
60725;BME280;59881;36.722;-4.462;2023-10-09T02:48:17;101593.75;;;17.98;80.48
60725;BME280;59881;36.722;-4.462;2023-10-09T02:50:46;101574.13;;;17.99;80.49
60725;BME280;59881;36.722;-4.462;2023-10-09T02:53:12;101473.25;;;17.30;80.08
60725;BME280;59881;36.722;-4.462;2023-10-09T02:55:44;101623.81;;;18.21;80.15
60725;BME280;59881;36.722;-4.462;2023-10-09T02:58:30;101626.47;;;18.21;80.23
60725;BME280;59881;36.722;-4.462;2023-10-09T03:00:58;101622.25;;;18.18;80.21
60725;BME280;59881;36.722;-4.462;2023-10-09T03:03:25;101558.69;;;17.82;80.21
60725;BME280;59881;36.722;-4.462;2023-10-09T03:05:51;101481.97;;;17.32;80.11
60725;BME280;59881;36.722;-4.462;2023-10-09T03:08:17;101618.53;;;18.10;80.05
60725;BME280;59881;36.722;-4.462;2023-10-09T03:10:44;101619.78;;;18.06;80.02
60725;BME280;59881;36.722;-4.462;2023-10-09T03:13:10;101307.72;;;16.17;80.21
60725;BME280;59881;36.722;-4.462;2023-10-09T03:15:35;101262.22;;;15.87;80.08
60725;BME280;59881;36.722;-4.462;2023-10-09T03:18:02;101561.75;;;17.66;80.44
60725;BME280;59881;36.722;-4.462;2023-10-09T03:20:30;101619.44;;;17.99;80.23
60725;BME280;59881;36.722;-4.462;2023-10-09T03:22:56;101543.41;;;17.51;80.33
60725;BME280;59881;36.722;-4.462;2023-10-09T03:25:23;101613.50;;;17.95;80.69
60725;BME280;59881;36.722;-4.462;2023-10-09T03:27:52;101610.16;;;17.93;80.52
60725;BME280;59881;36.722;-4.462;2023-10-09T03:30:21;101569.69;;;17.33;80.34
60725;BME280;59881;36.722;-4.462;2023-10-09T03:32:50;101614.25;;;17.86;80.61
60725;BME280;59881;36.722;-4.462;2023-10-09T03:35:20;101617.09;;;17.85;80.71
60725;BME280;59881;36.722;-4.462;2023-10-09T03:37:55;101307.47;;;15.63;80.43
60725;BME280;59881;36.722;-4.462;2023-10-09T03:40:23;101719.56;;;17.81;80.75
60725;BME280;59881;36.722;-4.462;2023-10-09T03:42:48;101613.91;;;17.79;80.76
60725;BME280;59881;36.722;-4.462;2023-10-09T03:45:14;101497.88;;;17.11;80.80
60725;BME280;59881;36.722;-4.462;2023-10-09T03:47:54;101589.50;;;17.63;80.86
60725;BME280;59881;36.722;-4.462;2023-10-09T03:50:28;101622.94;;;17.56;81.06
60725;BME280;59881;36.722;-4.462;2023-10-09T03:53:06;101298.81;;;15.84;80.97
60725;BME280;59881;36.722;-4.462;2023-10-09T03:55:38;101627.50;;;17.76;81.12
60725;BME280;59881;36.722;-4.462;2023-10-09T03:58:07;101623.84;;;17.77;81.18
60725;BME280;59881;36.722;-4.462;2023-10-09T04:00:37;101624.09;;;17.74;81.18
60725;BME280;59881;36.722;-4.462;2023-10-09T04:03:14;101440.63;;;16.39;80.94
60725;BME280;59881;36.722;-4.462;2023-10-09T04:05:41;101623.50;;;17.71;81.11
60725;BME280;59881;36.722;-4.462;2023-10-09T04:08:10;101400.75;;;16.28;80.95
60725;BME280;59881;36.722;-4.462;2023-10-09T04:10:54;101614.97;;;17.56;81.18
60725;BME280;59881;36.722;-4.462;2023-10-09T04:13:27;101635.41;;;17.67;81.45
60725;BME280;59881;36.722;-4.462;2023-10-09T04:15:58;101627.53;;;17.65;81.19
60725;BME280;59881;36.722;-4.462;2023-10-09T04:18:26;101632.75;;;17.67;81.21
60725;BME280;59881;36.722;-4.462;2023-10-09T04:20:58;101636.09;;;17.69;81.45
60725;BME280;59881;36.722;-4.462;2023-10-09T04:23:42;101379.84;;;16.12;81.21
60725;BME280;59881;36.722;-4.462;2023-10-09T04:26:46;101642.03;;;17.72;81.39
60725;BME280;59881;36.722;-4.462;2023-10-09T04:29:15;101319.34;;;15.82;81.06
60725;BME280;59881;36.722;-4.462;2023-10-09T04:31:55;101686.97;;;17.77;81.39
60725;BME280;59881;36.722;-4.462;2023-10-09T04:34:25;101357.38;;;16.05;81.51
60725;BME280;59881;36.722;-4.462;2023-10-09T04:36:57;101640.53;;;17.91;81.71
60725;BME280;59881;36.722;-4.462;2023-10-09T04:39:41;101722.31;;;18.02;81.86
60725;BME280;59881;36.722;-4.462;2023-10-09T04:42:35;101641.69;;;18.09;81.39
60725;BME280;59881;36.722;-4.462;2023-10-09T04:45:11;101660.41;;;17.98;81.25
60725;BME280;59881;36.722;-4.462;2023-10-09T04:47:37;101642.53;;;18.31;81.02
60725;BME280;59881;36.722;-4.462;2023-10-09T04:50:15;101594.94;;;18.05;80.74
60725;BME280;59881;36.722;-4.462;2023-10-09T04:52:44;101748.63;;;18.38;80.43
60725;BME280;59881;36.722;-4.462;2023-10-09T04:55:09;101651.59;;;18.39;80.00
60725;BME280;59881;36.722;-4.462;2023-10-09T04:57:43;101367.44;;;16.67;79.58
60725;BME280;59881;36.722;-4.462;2023-10-09T05:00:13;101648.09;;;18.39;79.52
60725;BME280;59881;36.722;-4.462;2023-10-09T05:03:08;101305.75;;;16.30;78.89
60725;BME280;59881;36.722;-4.462;2023-10-09T05:05:52;101356.28;;;16.73;78.73
60725;BME280;59881;36.722;-4.462;2023-10-09T05:08:27;101582.78;;;18.12;78.23
60725;BME280;59881;36.722;-4.462;2023-10-09T05:10:55;101655.00;;;18.63;77.91
60725;BME280;59881;36.722;-4.462;2023-10-09T05:13:27;101536.91;;;17.97;77.46
60725;BME280;59881;36.722;-4.462;2023-10-09T05:16:13;101684.78;;;18.68;76.93
60725;BME280;59881;36.722;-4.462;2023-10-09T05:18:50;101654.31;;;18.70;76.54
60725;BME280;59881;36.722;-4.462;2023-10-09T05:21:37;101567.69;;;18.23;75.81
60725;BME280;59881;36.722;-4.462;2023-10-09T05:24:07;101635.06;;;18.67;75.73
60725;BME280;59881;36.722;-4.462;2023-10-09T05:26:49;101655.59;;;18.87;75.41
60725;BME280;59881;36.722;-4.462;2023-10-09T05:29:22;101651.53;;;18.93;74.52
60725;BME280;59881;36.722;-4.462;2023-10-09T05:31:58;101660.09;;;18.87;74.15
60725;BME280;59881;36.722;-4.462;2023-10-09T05:34:43;101604.59;;;18.69;73.64
60725;BME280;59881;36.722;-4.462;2023-10-09T05:37:28;101654.97;;;19.05;73.21
60725;BME280;59881;36.722;-4.462;2023-10-09T05:40:04;101659.19;;;19.07;72.66
60725;BME280;59881;36.722;-4.462;2023-10-09T05:42:42;101658.91;;;19.10;72.38
60725;BME280;59881;36.722;-4.462;2023-10-09T05:45:12;101278.53;;;16.81;72.03
60725;BME280;59881;36.722;-4.462;2023-10-09T05:47:57;101664.72;;;19.15;72.46
60725;BME280;59881;36.722;-4.462;2023-10-09T05:50:31;101411.94;;;17.62;72.03
60725;BME280;59881;36.722;-4.462;2023-10-09T05:53:01;101700.72;;;19.21;72.04
60725;BME280;59881;36.722;-4.462;2023-10-09T05:55:28;101663.91;;;19.25;72.23
60725;BME280;59881;36.722;-4.462;2023-10-09T05:58:12;101348.28;;;17.38;71.79
60725;BME280;59881;36.722;-4.462;2023-10-09T06:00:56;101623.53;;;18.87;71.89
60725;BME280;59881;36.722;-4.462;2023-10-09T06:03:30;101670.38;;;19.32;71.87
60725;BME280;59881;36.722;-4.462;2023-10-09T06:06:14;101669.16;;;19.36;71.89
60725;BME280;59881;36.722;-4.462;2023-10-09T06:09:02;101663.50;;;19.39;71.67
60725;BME280;59881;36.722;-4.462;2023-10-09T06:11:46;101397.59;;;17.74;71.22
60725;BME280;59881;36.722;-4.462;2023-10-09T06:14:18;101745.81;;;19.45;71.40
60725;BME280;59881;36.722;-4.462;2023-10-09T06:16:53;101639.19;;;19.01;71.15
60725;BME280;59881;36.722;-4.462;2023-10-09T06:19:53;101335.16;;;17.46;70.96
60725;BME280;59881;36.722;-4.462;2023-10-09T06:22:24;101668.50;;;19.53;71.47
60725;BME280;59881;36.722;-4.462;2023-10-09T06:24:50;101632.84;;;19.33;71.17
60725;BME280;59881;36.722;-4.462;2023-10-09T06:27:18;101671.59;;;19.58;70.99
60725;BME280;59881;36.722;-4.462;2023-10-09T06:29:59;101676.66;;;19.61;70.91
60725;BME280;59881;36.722;-4.462;2023-10-09T06:32:49;101618.66;;;19.33;71.25
60725;BME280;59881;36.722;-4.462;2023-10-09T06:35:34;101659.22;;;19.57;70.71
60725;BME280;59881;36.722;-4.462;2023-10-09T06:38:01;101668.84;;;19.70;70.88
60725;BME280;59881;36.722;-4.462;2023-10-09T06:40:30;101671.94;;;19.75;70.63
60725;BME280;59881;36.722;-4.462;2023-10-09T06:43:02;101673.09;;;19.82;70.65
60725;BME280;59881;36.722;-4.462;2023-10-09T06:45:49;101673.38;;;19.89;70.44
60725;BME280;59881;36.722;-4.462;2023-10-09T06:48:27;101676.34;;;19.95;70.55
60725;BME280;59881;36.722;-4.462;2023-10-09T06:51:09;101707.13;;;19.90;70.38
60725;BME280;59881;36.722;-4.462;2023-10-09T06:53:43;101383.09;;;18.19;69.86
60725;BME280;59881;36.722;-4.462;2023-10-09T06:56:19;101648.88;;;19.93;70.08
60725;BME280;59881;36.722;-4.462;2023-10-09T06:58:59;101681.41;;;20.18;69.94
60725;BME280;59881;36.722;-4.462;2023-10-09T07:01:40;101671.13;;;20.23;69.95
60725;BME280;59881;36.722;-4.462;2023-10-09T07:04:14;101674.06;;;20.30;69.80
60725;BME280;59881;36.722;-4.462;2023-10-09T07:07:06;101674.34;;;20.36;69.57
60725;BME280;59881;36.722;-4.462;2023-10-09T07:09:47;101546.69;;;19.60;69.26
60725;BME280;59881;36.722;-4.462;2023-10-09T07:12:32;101622.28;;;20.11;68.98
60725;BME280;59881;36.722;-4.462;2023-10-09T07:15:01;101644.38;;;20.23;68.66
60725;BME280;59881;36.722;-4.462;2023-10-09T07:17:46;101702.53;;;20.50;68.12
60725;BME280;59881;36.722;-4.462;2023-10-09T07:20:12;101335.44;;;18.55;67.73
60725;BME280;59881;36.722;-4.462;2023-10-09T07:22:39;101686.31;;;20.71;67.54
60725;BME280;59881;36.722;-4.462;2023-10-09T07:25:17;101380.47;;;18.89;67.33
60725;BME280;59881;36.722;-4.462;2023-10-09T07:28:02;101726.31;;;20.82;67.27
60725;BME280;59881;36.722;-4.462;2023-10-09T07:30:28;101628.69;;;20.47;66.99
60725;BME280;59881;36.722;-4.462;2023-10-09T07:33:04;101673.75;;;20.81;66.61
60725;BME280;59881;36.722;-4.462;2023-10-09T07:35:45;101690.19;;;20.96;66.37
60725;BME280;59881;36.722;-4.462;2023-10-09T07:38:27;101399.03;;;19.29;66.23
60725;BME280;59881;36.722;-4.462;2023-10-09T07:41:01;101698.03;;;21.17;66.29
60725;BME280;59881;36.722;-4.462;2023-10-09T07:43:37;101695.28;;;21.27;65.99
60725;BME280;59881;36.722;-4.462;2023-10-09T07:46:16;101374.13;;;19.38;65.38
60725;BME280;59881;36.722;-4.462;2023-10-09T07:49:00;101706.09;;;21.45;65.29
60725;BME280;59881;36.722;-4.462;2023-10-09T07:51:34;101169.50;;;18.22;64.99
60725;BME280;59881;36.722;-4.462;2023-10-09T07:54:01;101714.66;;;21.58;64.71
60725;BME280;59881;36.722;-4.462;2023-10-09T07:56:37;101714.88;;;21.65;64.58
60725;BME280;59881;36.722;-4.462;2023-10-09T07:59:14;101409.78;;;19.86;64.18
60725;BME280;59881;36.722;-4.462;2023-10-09T08:01:48;101480.59;;;20.29;63.98
60725;BME280;59881;36.722;-4.462;2023-10-09T08:04:22;101722.97;;;21.83;63.88
60725;BME280;59881;36.722;-4.462;2023-10-09T08:07:24;101427.72;;;20.13;63.49
60725;BME280;59881;36.722;-4.462;2023-10-09T08:10:05;101704.38;;;21.99;63.42
60725;BME280;59881;36.722;-4.462;2023-10-09T08:12:43;101782.03;;;22.28;63.12
60725;BME280;59881;36.722;-4.462;2023-10-09T08:15:16;101734.84;;;22.44;62.30
60725;BME280;59881;36.722;-4.462;2023-10-09T08:17:57;101732.47;;;22.59;61.85
60725;BME280;59881;36.722;-4.462;2023-10-09T08:20:30;101586.03;;;21.84;61.03
60725;BME280;59881;36.722;-4.462;2023-10-09T08:23:21;101638.09;;;22.27;60.65
60725;BME280;59881;36.722;-4.462;2023-10-09T08:26:14;101729.38;;;22.98;60.17
60725;BME280;59881;36.722;-4.462;2023-10-09T08:28:41;101681.59;;;22.83;59.46
60725;BME280;59881;36.722;-4.462;2023-10-09T08:31:12;101692.84;;;23.05;58.90
60725;BME280;59881;36.722;-4.462;2023-10-09T08:34:06;101708.63;;;23.42;58.52
60725;BME280;59881;36.722;-4.462;2023-10-09T08:36:35;101728.81;;;23.89;57.98
60725;BME280;59881;36.722;-4.462;2023-10-09T08:39:03;101723.00;;;24.34;56.88
60725;BME280;59881;36.722;-4.462;2023-10-09T08:41:53;101718.47;;;24.84;56.11
60725;BME280;59881;36.722;-4.462;2023-10-09T08:44:23;101724.22;;;25.37;54.58
60725;BME280;59881;36.722;-4.462;2023-10-09T08:46:54;101751.06;;;25.70;53.22
60725;BME280;59881;36.722;-4.462;2023-10-09T08:49:19;101653.38;;;25.74;51.80
60725;BME280;59881;36.722;-4.462;2023-10-09T08:51:47;101729.88;;;26.67;51.09
60725;BME280;59881;36.722;-4.462;2023-10-09T08:54:14;101724.97;;;27.15;50.26
60725;BME280;59881;36.722;-4.462;2023-10-09T08:56:40;101622.25;;;27.73;48.02
60725;BME280;59881;36.722;-4.462;2023-10-09T08:59:15;101721.72;;;29.83;44.80
60725;BME280;59881;36.722;-4.462;2023-10-09T09:01:47;101660.06;;;29.77;42.55
60725;BME280;59881;36.722;-4.462;2023-10-09T09:04:39;101717.84;;;30.32;42.42
60725;BME280;59881;36.722;-4.462;2023-10-09T09:07:06;101667.47;;;30.37;41.56
60725;BME280;59881;36.722;-4.462;2023-10-09T09:09:32;101696.38;;;32.13;39.08
60725;BME280;59881;36.722;-4.462;2023-10-09T09:11:59;101694.88;;;33.11;37.09
60725;BME280;59881;36.722;-4.462;2023-10-09T09:14:38;101716.13;;;33.57;35.30
60725;BME280;59881;36.722;-4.462;2023-10-09T09:17:07;101509.78;;;33.43;34.53
60725;BME280;59881;36.722;-4.462;2023-10-09T09:19:37;101596.53;;;35.01;32.23
60725;BME280;59881;36.722;-4.462;2023-10-09T09:22:03;101747.69;;;35.27;33.70
60725;BME280;59881;36.722;-4.462;2023-10-09T09:24:40;101732.00;;;34.98;34.04
60725;BME280;59881;36.722;-4.462;2023-10-09T09:27:13;101717.00;;;35.13;33.96
60725;BME280;59881;36.722;-4.462;2023-10-09T09:29:43;101717.19;;;35.11;34.22
60725;BME280;59881;36.722;-4.462;2023-10-09T09:32:29;101719.38;;;34.97;33.84
60725;BME280;59881;36.722;-4.462;2023-10-09T09:35:01;101515.31;;;32.94;35.31
60725;BME280;59881;36.722;-4.462;2023-10-09T09:37:29;101715.66;;;33.79;35.82
60725;BME280;59881;36.722;-4.462;2023-10-09T09:40:07;101647.38;;;33.60;36.02
60725;BME280;59881;36.722;-4.462;2023-10-09T09:42:52;101715.09;;;34.78;35.06
60725;BME280;59881;36.722;-4.462;2023-10-09T09:45:17;101536.09;;;34.62;32.74
60725;BME280;59881;36.722;-4.462;2023-10-09T09:47:49;101586.59;;;35.23;32.07
60725;BME280;59881;36.722;-4.462;2023-10-09T09:50:19;101749.03;;;35.12;33.63
60725;BME280;59881;36.722;-4.462;2023-10-09T09:52:51;101708.03;;;36.32;33.12
60725;BME280;59881;36.722;-4.462;2023-10-09T09:55:24;101568.44;;;35.51;31.97
60725;BME280;59881;36.722;-4.462;2023-10-09T09:57:56;101617.22;;;34.68;33.18
60725;BME280;59881;36.722;-4.462;2023-10-09T10:00:27;101622.94;;;35.07;33.66
60725;BME280;59881;36.722;-4.462;2023-10-09T10:05:50;101678.41;;;34.08;34.52
60725;BME280;59881;36.722;-4.462;2023-10-09T10:08:19;101574.22;;;33.63;35.54
60725;BME280;59881;36.722;-4.462;2023-10-09T10:10:46;101649.81;;;34.34;34.74
60725;BME280;59881;36.722;-4.462;2023-10-09T10:16:12;101687.59;;;41.85;25.07
60725;BME280;59881;36.722;-4.462;2023-10-09T10:18:54;101578.84;;;44.73;21.99
60725;BME280;59881;36.722;-4.462;2023-10-09T10:21:35;101684.84;;;47.96;19.08
60725;BME280;59881;36.722;-4.462;2023-10-09T10:27:26;101687.09;;;49.85;16.92
60725;BME280;59881;36.722;-4.462;2023-10-09T10:32:54;101694.53;;;47.99;18.45
60725;BME280;59881;36.722;-4.462;2023-10-09T10:35:22;101689.94;;;47.07;18.42
60725;BME280;59881;36.722;-4.462;2023-10-09T10:38:32;101692.97;;;43.69;21.66
60725;BME280;59881;36.722;-4.462;2023-10-09T10:41:16;101722.09;;;37.80;27.49
60725;BME280;59881;36.722;-4.462;2023-10-09T10:43:45;101713.31;;;33.64;33.93
60725;BME280;59881;36.722;-4.462;2023-10-09T10:46:21;101716.78;;;31.00;39.04
60725;BME280;59881;36.722;-4.462;2023-10-09T10:49:00;101678.22;;;29.15;41.71
60725;BME280;59881;36.722;-4.462;2023-10-09T10:51:40;101730.25;;;28.69;44.16
60725;BME280;59881;36.722;-4.462;2023-10-09T10:54:07;101736.47;;;27.98;46.30
60725;BME280;59881;36.722;-4.462;2023-10-09T10:56:54;101659.88;;;26.87;47.94
60725;BME280;59881;36.722;-4.462;2023-10-09T10:59:23;101463.97;;;25.56;48.46
60725;BME280;59881;36.722;-4.462;2023-10-09T11:01:51;101503.19;;;25.67;49.74
60725;BME280;59881;36.722;-4.462;2023-10-09T11:04:41;101625.63;;;26.35;50.77
60725;BME280;59881;36.722;-4.462;2023-10-09T11:07:06;101536.63;;;25.34;51.16
60725;BME280;59881;36.722;-4.462;2023-10-09T11:09:55;101708.63;;;26.79;51.39
60725;BME280;59881;36.722;-4.462;2023-10-09T11:15:30;101706.91;;;26.63;52.41
60725;BME280;59881;36.722;-4.462;2023-10-09T11:18:08;101711.53;;;26.54;52.64
60725;BME280;59881;36.722;-4.462;2023-10-09T11:20:39;101166.66;;;22.92;52.89
60725;BME280;59881;36.722;-4.462;2023-10-09T11:23:20;101617.34;;;25.44;53.60
60725;BME280;59881;36.722;-4.462;2023-10-09T11:25:55;101733.28;;;25.84;54.54
60725;BME280;59881;36.722;-4.462;2023-10-09T11:28:33;101584.75;;;25.23;54.23
60725;BME280;59881;36.722;-4.462;2023-10-09T11:31:13;101726.88;;;25.93;54.86
60725;BME280;59881;36.722;-4.462;2023-10-09T11:33:45;101734.25;;;25.99;54.36
60725;BME280;59881;36.722;-4.462;2023-10-09T11:36:11;101734.47;;;25.81;54.84
60725;BME280;59881;36.722;-4.462;2023-10-09T11:38:37;101483.63;;;24.64;54.89
60725;BME280;59881;36.722;-4.462;2023-10-09T11:41:16;101673.91;;;25.52;55.13
60725;BME280;59881;36.722;-4.462;2023-10-09T11:43:50;101449.91;;;24.21;55.13
60725;BME280;59881;36.722;-4.462;2023-10-09T11:46:20;101693.81;;;25.83;55.19
60725;BME280;59881;36.722;-4.462;2023-10-09T11:49:09;101422.16;;;24.20;55.38
60725;BME280;59881;36.722;-4.462;2023-10-09T11:51:47;101669.56;;;25.74;55.91
60725;BME280;59881;36.722;-4.462;2023-10-09T11:54:31;101368.91;;;23.91;55.86
60725;BME280;59881;36.722;-4.462;2023-10-09T11:56:58;101725.78;;;25.71;55.74
60725;BME280;59881;36.722;-4.462;2023-10-09T11:59:35;101603.06;;;24.88;55.82
60725;BME280;59881;36.722;-4.462;2023-10-09T12:02:07;101670.28;;;25.37;56.69
60725;BME280;59881;36.722;-4.462;2023-10-09T12:04:40;101665.09;;;25.35;56.52
60725;BME280;59881;36.722;-4.462;2023-10-09T12:07:09;101465.97;;;23.81;56.28
60725;BME280;59881;36.722;-4.462;2023-10-09T12:09:36;101447.31;;;23.80;56.69
60725;BME280;59881;36.722;-4.462;2023-10-09T12:12:07;101649.06;;;25.34;57.21
60725;BME280;59881;36.722;-4.462;2023-10-09T12:14:34;101641.69;;;25.28;57.58
60725;BME280;59881;36.722;-4.462;2023-10-09T12:17:07;101607.69;;;24.71;57.10
60725;BME280;59881;36.722;-4.462;2023-10-09T12:19:34;101289.72;;;23.21;57.00
60725;BME280;59881;36.722;-4.462;2023-10-09T12:22:01;101352.16;;;23.64;56.71
60725;BME280;59881;36.722;-4.462;2023-10-09T12:24:30;101309.88;;;22.92;56.49
60725;BME280;59881;36.722;-4.462;2023-10-09T12:26:56;101667.50;;;25.14;56.74
60725;BME280;59881;36.722;-4.462;2023-10-09T12:29:21;101058.28;;;21.45;56.65
60725;BME280;59881;36.722;-4.462;2023-10-09T12:31:47;101633.81;;;25.10;56.76
60725;BME280;59881;36.722;-4.462;2023-10-09T12:34:14;101611.13;;;24.96;57.16
60725;BME280;59881;36.722;-4.462;2023-10-09T12:36:47;101446.28;;;23.64;57.01
60725;BME280;59881;36.722;-4.462;2023-10-09T12:39:14;101537.72;;;24.30;56.65
60725;BME280;59881;36.722;-4.462;2023-10-09T12:41:44;101307.03;;;22.86;57.10
60725;BME280;59881;36.722;-4.462;2023-10-09T12:44:09;101217.47;;;22.11;57.18
60725;BME280;59881;36.722;-4.462;2023-10-09T12:46:44;101593.47;;;24.93;57.56
60725;BME280;59881;36.722;-4.462;2023-10-09T12:49:19;101601.31;;;25.03;57.28
60725;BME280;59881;36.722;-4.462;2023-10-09T12:51:45;101340.09;;;23.35;56.86
60725;BME280;59881;36.722;-4.462;2023-10-09T12:54:10;101627.91;;;24.50;57.02
60725;BME280;59881;36.722;-4.462;2023-10-09T12:56:38;101350.53;;;23.30;57.48
60725;BME280;59881;36.722;-4.462;2023-10-09T12:59:04;101265.22;;;22.83;57.42
60725;BME280;59881;36.722;-4.462;2023-10-09T13:01:31;101613.00;;;24.87;57.49
60725;BME280;59881;36.722;-4.462;2023-10-09T13:04:11;101591.44;;;24.87;56.92
60725;BME280;59881;36.722;-4.462;2023-10-09T13:06:40;101413.19;;;23.80;56.77
60725;BME280;59881;36.722;-4.462;2023-10-09T13:09:18;101579.97;;;24.93;57.12
60725;BME280;59881;36.722;-4.462;2023-10-09T13:12:06;101584.66;;;24.99;56.88
60725;BME280;59881;36.722;-4.462;2023-10-09T13:14:43;101135.97;;;22.13;56.69
60725;BME280;59881;36.722;-4.462;2023-10-09T13:17:08;101341.47;;;23.23;56.71
60725;BME280;59881;36.722;-4.462;2023-10-09T13:19:35;101199.25;;;22.64;57.20
60725;BME280;59881;36.722;-4.462;2023-10-09T13:22:00;101342.63;;;23.29;57.27
60725;BME280;59881;36.722;-4.462;2023-10-09T13:24:29;101612.75;;;25.13;57.20
60725;BME280;59881;36.722;-4.462;2023-10-09T13:26:55;101307.47;;;23.55;56.43
60725;BME280;59881;36.722;-4.462;2023-10-09T13:29:23;101359.19;;;23.90;56.05
60725;BME280;59881;36.722;-4.462;2023-10-09T13:31:50;101516.13;;;24.46;56.85